Time;durP1;ratioP1;P1;durP2;ratioP2;P2;SDS_P1;SDS_P2;PMS_P1;PMS_P2;Temp;Humidity;BMP_temperature;BMP_pressure;BME280_temperature;BME280_humidity;BME280_pressure;Samples;Min_cycle;Max_cycle;Signal;HPM_P1;HPM_P2
2022/09/02 00:01:18;;;;;;;1.02;0.70;;;;;;;18.10;47.13;101775.09;5058102;27;96474;-30
2022/09/02 00:03:45;;;;;;;1.45;0.70;;;;;;;18.08;47.18;101768.84;5058195;27;96727;-31
2022/09/02 00:06:10;;;;;;;0.63;0.63;;;;;;;18.09;46.84;101764.22;5039022;27;100989;-31
2022/09/02 00:08:35;;;;;;;1.23;0.73;;;;;;;18.04;46.83;101770.09;5057570;27;97794;-32
2022/09/02 00:11:04;;;;;;;0.70;0.60;;;;;;;18.03;47.32;101765.59;5057174;27;96591;-30
2022/09/02 00:13:30;;;;;;;1.00;0.65;;;;;;;17.99;47.23;101772.31;5022725;27;97082;-31
2022/09/02 00:15:55;;;;;;;1.42;0.68;;;;;;;17.96;46.79;101764.34;5038566;27;100858;-30
2022/09/02 00:18:23;;;;;;;1.67;0.60;;;;;;;17.97;47.21;101758.75;5057164;27;99133;-30
2022/09/02 00:20:52;;;;;;;1.25;0.40;;;;;;;17.95;47.40;101759.88;5039314;27;96759;-30
2022/09/02 00:23:18;;;;;;;1.02;0.77;;;;;;;17.95;47.24;101751.63;5057896;27;96814;-31
2022/09/02 00:25:44;;;;;;;1.00;0.77;;;;;;;17.92;47.28;101749.97;5056913;27;98828;-30
2022/09/02 00:28:11;;;;;;;0.85;0.50;;;;;;;17.88;47.44;101744.88;5057514;27;98052;-30
2022/09/02 00:30:37;;;;;;;1.92;0.80;;;;;;;17.91;47.04;101747.38;5039283;27;96515;-31
2022/09/02 00:33:04;;;;;;;3.97;0.73;;;;;;;17.90;47.44;101749.25;5057752;27;96771;-31
2022/09/02 00:35:29;;;;;;;1.20;0.68;;;;;;;17.84;47.25;101749.72;5041808;27;100829;-31
2022/09/02 00:37:55;;;;;;;1.23;0.50;;;;;;;17.82;47.19;101732.50;5060376;27;98740;-31
2022/09/02 00:40:22;;;;;;;1.05;0.70;;;;;;;17.79;47.50;101735.47;5061030;27;96605;-31
2022/09/02 00:42:54;;;;;;;0.65;0.43;;;;;;;17.77;47.37;101735.56;5042637;27;96898;-30
2022/09/02 00:45:20;;;;;;;1.05;0.60;;;;;;;17.73;47.27;101741.41;5060257;27;99633;-30
2022/09/02 00:47:49;;;;;;;2.38;0.70;;;;;;;17.71;47.58;101730.59;5060643;27;97891;-30
2022/09/02 00:50:16;;;;;;;1.20;0.60;;;;;;;17.75;47.68;101732.06;5042527;27;96803;-31
2022/09/02 00:52:52;;;;;;;1.25;0.65;;;;;;;17.72;47.59;101728.72;5042632;27;96820;-31
2022/09/02 00:55:21;;;;;;;3.25;1.45;;;;;;;17.71;47.71;101726.97;5060567;27;98004;-32
2022/09/02 00:57:51;;;;;;;0.60;0.60;;;;;;;17.68;47.49;101728.06;5060234;27;97318;-30
2022/09/02 01:00:24;;;;;;;1.20;0.52;;;;;;;17.63;48.02;101738.53;5041799;27;96564;-30
2022/09/02 01:02:53;;;;;;;0.90;0.65;;;;;;;17.55;48.35;101727.28;5042244;27;96787;-30
2022/09/02 01:05:22;;;;;;;0.70;0.50;;;;;;;17.53;48.09;101730.13;5041862;27;100803;-31
2022/09/02 01:07:49;;;;;;;0.98;0.55;;;;;;;17.53;47.65;101721.91;5060045;27;99412;-30
2022/09/02 01:10:18;;;;;;;1.17;0.77;;;;;;;17.54;48.50;101720.03;5042245;27;96669;-31
2022/09/02 01:12:44;;;;;;;1.15;0.70;;;;;;;17.46;47.99;101722.50;5041327;27;96862;-30
2022/09/02 01:15:12;;;;;;;1.73;0.80;;;;;;;17.46;48.52;101719.78;5059919;27;97954;-31
2022/09/02 01:17:41;;;;;;;0.60;0.50;;;;;;;17.46;48.06;101728.00;5041659;27;100927;-31
2022/09/02 01:20:11;;;;;;;1.65;0.70;;;;;;;17.43;48.30;101722.75;5042183;27;96655;-30
2022/09/02 01:22:38;;;;;;;0.75;0.57;;;;;;;17.42;48.39;101724.59;5042007;27;96819;-31
2022/09/02 01:25:11;;;;;;;1.20;0.70;;;;;;;17.39;48.39;101717.50;5041005;27;99023;-31
2022/09/02 01:27:37;;;;;;;0.60;0.40;;;;;;;17.42;48.59;101716.38;5059874;27;99718;-30
2022/09/02 01:30:04;;;;;;;1.08;0.55;;;;;;;17.36;48.35;101722.34;5060233;27;96478;-31
2022/09/02 01:32:30;;;;;;;1.05;0.63;;;;;;;17.33;48.79;101722.59;5041833;27;96852;-32
2022/09/02 01:34:55;;;;;;;1.42;0.77;;;;;;;17.22;48.77;101712.44;5059772;27;97926;-32
2022/09/02 01:37:21;;;;;;;1.00;0.70;;;;;;;17.16;48.87;101715.63;5059816;27;97307;-31
2022/09/02 01:39:47;;;;;;;0.70;0.50;;;;;;;17.12;49.53;101705.91;5041625;27;96667;-30
2022/09/02 01:42:13;;;;;;;1.50;0.70;;;;;;;17.11;49.21;101709.63;5042130;27;96878;-30
2022/09/02 01:44:42;;;;;;;1.15;0.75;;;;;;;17.09;49.16;101712.50;5059206;27;97970;-30
2022/09/02 01:47:21;;;;;;;2.25;0.85;;;;;;;17.09;49.12;101711.59;5041124;27;101032;-30
2022/09/02 01:49:48;;;;;;;2.42;1.00;;;;;;;17.09;49.46;101712.50;5059905;27;96593;-31
2022/09/02 01:52:14;;;;;;;2.40;0.70;;;;;;;17.08;49.15;101715.34;5041473;27;96879;-30
2022/09/02 01:54:40;;;;;;;1.67;0.70;;;;;;;17.10;49.61;101713.38;5041123;27;101466;-30
2022/09/02 01:57:05;;;;;;;1.42;0.95;;;;;;;17.10;49.64;101707.91;5059305;27;98994;-31
2022/09/02 01:59:31;;;;;;;1.25;0.80;;;;;;;17.13;49.09;101713.13;5060045;27;96603;-30
2022/09/02 02:01:56;;;;;;;2.35;0.60;;;;;;;17.07;49.40;101703.53;5059954;27;96732;-30
2022/09/02 02:04:23;;;;;;;1.27;0.85;;;;;;;17.10;49.03;101707.91;5059253;27;98033;-30
2022/09/02 02:06:50;;;;;;;0.95;0.52;;;;;;;17.09;49.15;101706.13;5059392;27;99518;-31
2022/09/02 02:09:16;;;;;;;0.93;0.57;;;;;;;17.08;49.61;101701.66;5041330;27;96566;-31
2022/09/02 02:11:42;;;;;;;4.97;0.80;;;;;;;17.05;49.22;101699.16;5040720;27;96786;-30
2022/09/02 02:14:08;;;;;;;0.43;0.43;;;;;;;17.06;49.41;101703.63;5040106;27;101053;-31
2022/09/02 02:16:34;;;;;;;1.08;0.70;;;;;;;16.97;49.63;101695.13;5040419;27;100875;-30
2022/09/02 02:18:59;;;;;;;0.68;0.60;;;;;;;16.97;49.65;101692.41;5059697;27;96682;-32
2022/09/02 02:21:24;;;;;;;1.00;0.57;;;;;;;17.00;49.73;101706.84;5041111;27;96914;-31
2022/09/02 02:23:50;;;;;;;0.55;0.40;;;;;;;16.94;50.42;101698.09;5059153;27;97959;-30
2022/09/02 02:26:16;;;;;;;1.10;0.60;;;;;;;16.93;50.07;101700.94;5058683;27;99098;-30
2022/09/02 02:28:41;;;;;;;1.00;0.55;;;;;;;16.92;50.20;101693.72;5059859;27;96560;-30
2022/09/02 02:31:07;;;;;;;0.40;0.40;;;;;;;16.90;50.41;101693.84;5041474;27;96930;-30
2022/09/02 02:33:33;;;;;;;0.60;0.40;;;;;;;16.88;50.39;101693.09;5058881;27;97916;-31
2022/09/02 02:35:58;;;;;;;0.80;0.57;;;;;;;16.86;49.87;101686.84;5058901;27;97492;-32
2022/09/02 02:38:24;;;;;;;0.60;0.40;;;;;;;16.82;50.22;101682.59;5058965;27;96554;-30
2022/09/02 02:40:54;;;;;;;0.93;0.50;;;;;;;16.86;50.20;101683.25;5059274;27;96802;-31
2022/09/02 02:43:20;;;;;;;0.95;0.65;;;;;;;16.79;50.49;101682.81;5040357;27;100983;-30
2022/09/02 02:45:45;;;;;;;1.02;0.63;;;;;;;16.76;50.16;101681.16;5058645;27;98003;-30
2022/09/02 02:48:12;;;;;;;0.57;0.57;;;;;;;16.79;51.14;101685.56;5040834;27;96506;-31
2022/09/02 02:50:38;;;;;;;0.57;0.45;;;;;;;16.77;50.55;101690.22;5040875;27;96919;-30
2022/09/02 02:53:03;;;;;;;2.22;0.63;;;;;;;16.73;50.94;101683.22;5058596;27;96771;-31
2022/09/02 02:55:29;;;;;;;0.68;0.47;;;;;;;16.74;50.59;101685.00;5058518;27;97792;-33
2022/09/02 02:57:54;;;;;;;2.13;0.82;;;;;;;16.70;50.73;101680.72;5058282;27;96441;-31
2022/09/02 03:00:26;;;;;;;3.50;0.60;;;;;;;16.69;51.43;101679.00;5059456;27;97110;-31
2022/09/02 03:02:57;;;;;;;3.40;0.50;;;;;;;16.68;50.95;101674.50;5057829;27;99752;-31
2022/09/02 03:05:22;;;;;;;1.77;0.63;;;;;;;16.68;51.57;101671.75;5039843;27;100903;-32
2022/09/02 03:07:48;;;;;;;3.65;0.50;;;;;;;16.67;50.83;101675.50;5058959;27;96479;-30
2022/09/02 03:10:13;;;;;;;0.82;0.60;;;;;;;16.63;51.07;101661.16;5058060;27;102181;-31
2022/09/02 03:12:40;;;;;;;0.93;0.65;;;;;;;16.61;51.20;101673.19;5057150;27;99927;-32
2022/09/02 03:15:08;;;;;;;1.15;0.45;;;;;;;16.59;51.09;101669.69;5039513;27;100766;-32
2022/09/02 03:17:34;;;;;;;1.33;0.63;;;;;;;16.56;51.52;101674.44;5040326;27;96663;-33
2022/09/02 03:20:00;;;;;;;0.65;0.50;;;;;;;16.56;51.14;101666.22;5040662;27;96818;-30
2022/09/02 03:22:26;;;;;;;0.55;0.55;;;;;;;16.55;50.73;101660.88;5057839;27;98804;-31
2022/09/02 03:24:52;;;;;;;3.55;0.60;;;;;;;16.53;51.12;101673.78;5057809;27;97965;-31
2022/09/02 03:27:17;;;;;;;1.67;0.70;;;;;;;16.50;51.08;101663.06;5039628;27;96683;-31
2022/09/02 03:29:43;;;;;;;3.13;0.70;;;;;;;16.49;51.25;101670.41;5057733;27;105116;-30
2022/09/02 03:32:09;;;;;;;1.48;0.77;;;;;;;16.47;51.19;101666.00;5057732;27;99297;-31
2022/09/02 03:34:34;;;;;;;0.60;0.55;;;;;;;16.48;51.14;101667.78;5039572;27;100950;-30
2022/09/02 03:37:00;;;;;;;0.60;0.55;;;;;;;16.46;51.09;101661.53;5058428;27;96506;-30
2022/09/02 03:39:25;;;;;;;1.33;0.57;;;;;;;16.42;51.22;101663.63;5058350;27;96812;-31
2022/09/02 03:41:52;;;;;;;0.32;0.28;;;;;;;16.41;51.73;101664.59;5057669;27;99226;-30
2022/09/02 03:44:17;;;;;;;0.85;0.60;;;;;;;16.38;51.65;101662.09;5039762;27;100812;-31
2022/09/02 03:46:42;;;;;;;0.80;0.55;;;;;;;16.42;52.16;101660.91;5058294;27;96557;-30
2022/09/02 03:49:08;;;;;;;0.60;0.60;;;;;;;16.42;51.42;101658.16;5058648;27;96767;-31
2022/09/02 03:51:34;;;;;;;1.20;0.68;;;;;;;16.42;51.33;101662.75;5057109;27;99201;-30
2022/09/02 03:54:02;;;;;;;0.88;0.63;;;;;;;16.38;51.44;101653.91;5057248;27;99690;-30
2022/09/02 03:56:28;;;;;;;1.92;0.57;;;;;;;16.36;52.08;101658.59;5058096;27;96725;-30
2022/09/02 03:58:54;;;;;;;1.10;0.80;;;;;;;16.34;52.00;101652.38;5058137;27;96818;-31
2022/09/02 04:01:24;;;;;;;0.50;0.50;;;;;;;16.34;52.47;101645.03;5057474;27;97960;-30
2022/09/02 04:03:50;;;;;;;1.20;0.82;;;;;;;16.34;51.62;101645.03;5057359;27;99202;-31
2022/09/02 04:06:18;;;;;;;0.60;0.57;;;;;;;16.31;52.01;101647.13;5039625;27;96576;-30
2022/09/02 04:08:44;;;;;;;1.17;0.60;;;;;;;16.27;51.62;101638.25;5039656;27;96810;-31
2022/09/02 04:11:13;;;;;;;0.82;0.45;;;;;;;16.29;52.27;101643.63;5057249;27;97873;-31
2022/09/02 04:13:39;;;;;;;2.88;0.80;;;;;;;16.27;51.68;101643.72;5057116;27;99363;-31
2022/09/02 04:16:12;;;;;;;0.63;0.60;;;;;;;16.28;52.35;101639.13;5057628;27;96699;-32
2022/09/02 04:18:38;;;;;;;1.02;0.60;;;;;;;16.24;51.95;101637.63;5057839;27;96709;-31
2022/09/02 04:21:04;;;;;;;3.28;0.60;;;;;;;16.22;52.35;101640.47;5057257;27;97952;-30
2022/09/02 04:23:30;;;;;;;2.17;1.10;;;;;;;16.22;51.95;101639.59;5038897;27;101644;-30
2022/09/02 04:25:56;;;;;;;1.70;0.75;;;;;;;16.22;52.26;101637.72;5039345;27;96705;-29
2022/09/02 04:28:21;;;;;;;1.90;0.85;;;;;;;16.17;52.34;101639.94;5057820;27;96778;-31
2022/09/02 04:30:47;;;;;;;0.80;0.52;;;;;;;16.13;52.50;101642.00;5038795;27;101205;-32
2022/09/02 04:33:12;;;;;;;0.68;0.57;;;;;;;16.10;53.01;101639.50;5038701;27;108894;-31
2022/09/02 04:35:42;;;;;;;0.73;0.55;;;;;;;16.11;53.13;101633.06;5039138;27;96770;-30
2022/09/02 04:38:08;;;;;;;1.83;0.90;;;;;;;16.14;53.05;101637.44;5039262;27;96806;-33
2022/09/02 04:40:34;;;;;;;0.55;0.55;;;;;;;16.12;52.57;101628.47;5056502;27;99382;-31
2022/09/02 04:42:59;;;;;;;0.88;0.65;;;;;;;16.09;53.48;101628.69;5057089;27;97831;-30
2022/09/02 04:45:25;;;;;;;2.80;0.65;;;;;;;16.12;53.09;101632.06;5057456;27;96596;-31
2022/09/02 04:47:50;;;;;;;0.68;0.50;;;;;;;16.10;52.79;101625.81;5057496;27;96802;-30
2022/09/02 04:50:15;;;;;;;1.67;0.73;;;;;;;16.11;52.58;101623.97;5056696;27;98054;-31
2022/09/02 04:52:41;;;;;;;1.17;0.73;;;;;;;16.08;52.70;101626.94;5056802;27;97904;-31
2022/09/02 04:55:07;;;;;;;3.75;0.52;;;;;;;16.07;52.55;101628.78;5057171;27;96606;-30
2022/09/02 04:57:33;;;;;;;0.75;0.47;;;;;;;16.06;52.50;101624.28;5039358;27;96935;-31
2022/09/02 05:00:00;;;;;;;0.88;0.43;;;;;;;16.05;52.89;101625.28;5056632;27;99381;-30
2022/09/02 05:02:25;;;;;;;1.42;0.90;;;;;;;16.06;52.70;101627.03;5056921;27;97911;-30
2022/09/02 05:04:51;;;;;;;0.80;0.60;;;;;;;16.07;52.53;101623.31;5055901;27;99350;-31
2022/09/02 05:07:16;;;;;;;2.03;0.90;;;;;;;16.07;52.70;101633.41;5056901;27;96700;-31
2022/09/02 05:09:43;;;;;;;2.30;1.00;;;;;;;16.06;53.54;101629.75;5056625;27;97875;-31
2022/09/02 05:12:08;;;;;;;1.20;0.60;;;;;;;16.04;52.60;101628.13;5055843;27;97139;-32
2022/09/02 05:14:34;;;;;;;2.08;0.60;;;;;;;16.02;52.91;101628.25;5056678;27;96790;-30
2022/09/02 05:16:59;;;;;;;1.30;0.70;;;;;;;16.01;52.50;101637.41;5057156;27;96805;-31
2022/09/02 05:19:25;;;;;;;5.97;1.10;;;;;;;15.99;52.75;101631.19;5056400;27;99970;-30
2022/09/02 05:21:56;;;;;;;1.70;0.80;;;;;;;15.98;52.91;101628.59;5060531;27;97238;-31
2022/09/02 05:24:22;;;;;;;2.83;0.73;;;;;;;15.95;52.96;101637.88;5060400;27;96473;-30
2022/09/02 05:26:49;;;;;;;1.10;0.70;;;;;;;15.93;52.83;101637.97;5060544;27;96762;-30
2022/09/02 05:29:16;;;;;;;1.35;0.60;;;;;;;15.91;52.93;101637.22;5041018;27;101237;-31
2022/09/02 05:31:42;;;;;;;1.83;0.75;;;;;;;15.87;53.67;101640.25;5041404;27;101376;-30
2022/09/02 05:34:07;;;;;;;1.05;0.70;;;;;;;15.86;53.35;101633.06;5059996;27;96549;-30
2022/09/02 05:36:33;;;;;;;4.25;0.70;;;;;;;15.87;53.20;101632.97;5060111;27;96892;-30
2022/09/02 05:38:59;;;;;;;1.52;0.70;;;;;;;15.88;52.96;101625.63;5059671;27;98850;-30
2022/09/02 05:41:26;;;;;;;1.27;0.63;;;;;;;15.91;52.83;101630.88;5041253;27;101139;-30
2022/09/02 05:43:54;;;;;;;3.95;0.88;;;;;;;15.93;53.23;101629.78;5041693;27;96634;-30
2022/09/02 05:46:22;;;;;;;0.82;0.73;;;;;;;15.91;53.18;101633.59;5041861;27;96543;-30
2022/09/02 05:49:07;;;;;;;2.78;1.00;;;;;;;15.90;53.46;101629.16;5041218;27;100992;-30
2022/09/02 05:51:40;;;;;;;1.23;0.80;;;;;;;15.95;53.08;101628.81;5059710;27;97907;-30
2022/09/02 05:54:07;;;;;;;1.55;0.60;;;;;;;15.90;53.65;101620.94;5041076;27;96776;-33
2022/09/02 05:56:32;;;;;;;1.25;0.63;;;;;;;15.88;53.31;101625.63;5060082;27;97189;-31
2022/09/02 05:58:58;;;;;;;1.35;0.68;;;;;;;15.88;53.14;101625.63;5059342;27;98023;-30
2022/09/02 06:01:24;;;;;;;1.38;0.68;;;;;;;15.88;53.61;101631.09;5059123;27;99311;-31
2022/09/02 06:03:51;;;;;;;1.42;0.50;;;;;;;15.87;53.33;101622.03;5060054;27;96660;-31
2022/09/02 06:06:17;;;;;;;1.35;0.73;;;;;;;15.92;53.72;101627.16;5059942;27;96778;-32
2022/09/02 06:08:43;;;;;;;1.27;0.77;;;;;;;15.92;53.73;101621.69;5040919;27;101249;-31
2022/09/02 06:11:10;;;;;;;0.77;0.68;;;;;;;15.93;53.15;101632.50;5040964;27;101210;-30
2022/09/02 06:13:39;;;;;;;0.63;0.50;;;;;;;15.97;53.35;101630.44;5041083;27;97978;-30
2022/09/02 06:16:07;;;;;;;1.75;0.77;;;;;;;16.02;54.06;101631.00;5041114;27;96928;-30
2022/09/02 06:18:33;;;;;;;1.02;0.60;;;;;;;16.02;53.22;101614.59;5040225;27;101726;-31
2022/09/02 06:20:58;;;;;;;0.88;0.57;;;;;;;16.08;54.30;101625.06;5058907;27;99409;-30
2022/09/02 06:23:24;;;;;;;0.82;0.60;;;;;;;16.11;53.19;101622.13;5058982;27;96659;-30
2022/09/02 06:25:49;;;;;;;1.00;0.77;;;;;;;16.11;53.31;101616.66;5058777;27;96868;-31
2022/09/02 06:28:15;;;;;;;2.08;0.63;;;;;;;16.18;52.94;101618.94;5058798;27;98849;-31
2022/09/02 06:30:43;;;;;;;4.38;0.77;;;;;;;16.23;53.45;101624.94;5059100;27;97325;-30
2022/09/02 06:33:09;;;;;;;0.73;0.50;;;;;;;16.28;52.76;101620.91;5059152;27;96653;-30
2022/09/02 06:35:38;;;;;;;1.17;0.65;;;;;;;16.36;53.60;101625.78;5041402;27;97004;-31
2022/09/02 06:38:04;;;;;;;0.93;0.70;;;;;;;16.41;52.91;101623.59;5040324;27;101194;-30
2022/09/02 06:40:30;;;;;;;1.60;0.65;;;;;;;16.43;52.97;101621.63;5057364;27;97620;-30
2022/09/02 06:42:55;;;;;;;2.63;1.20;;;;;;;16.51;52.90;101626.50;5058955;27;96698;-30
2022/09/02 06:45:24;;;;;;;1.38;0.75;;;;;;;16.56;53.45;101619.72;5059257;27;96809;-32
2022/09/02 06:47:52;;;;;;;3.25;0.82;;;;;;;16.68;53.70;101619.78;5058561;27;97519;-31
2022/09/02 06:50:18;;;;;;;1.08;0.75;;;;;;;16.76;52.65;101625.56;5040207;27;100977;-30
2022/09/02 06:52:43;;;;;;;0.88;0.77;;;;;;;16.87;52.70;101617.44;5040559;27;96658;-32
2022/09/02 06:55:09;;;;;;;1.10;0.75;;;;;;;16.98;52.41;101606.53;5058938;27;96809;-30
2022/09/02 06:57:35;;;;;;;0.98;0.55;;;;;;;17.12;52.43;101612.84;5040091;27;101487;-30
2022/09/02 07:00:05;;;;;;;2.05;1.35;;;;;;;17.25;52.33;101610.88;5040457;27;101226;-31
2022/09/02 07:02:30;;;;;;;4.05;0.85;;;;;;;17.43;51.66;101608.59;5040486;27;96677;-31
2022/09/02 07:05:14;;;;;;;1.17;0.77;;;;;;;17.50;51.87;101608.97;5059131;27;96739;-31
2022/09/02 07:07:42;;;;;;;1.17;0.82;;;;;;;17.54;51.52;101602.25;5039391;27;100877;-31
2022/09/02 07:10:11;;;;;;;1.33;0.88;;;;;;;17.59;51.57;101605.50;5039862;27;101368;-30
2022/09/02 07:12:38;;;;;;;1.40;0.90;;;;;;;17.74;51.49;101604.28;5039796;27;96633;-33
2022/09/02 07:15:05;;;;;;;1.65;0.90;;;;;;;17.92;51.02;101606.56;5058590;27;96914;-30
2022/09/02 07:17:31;;;;;;;1.08;0.90;;;;;;;17.98;51.00;101590.50;5039782;27;102649;-30
2022/09/02 07:19:59;;;;;;;1.55;0.88;;;;;;;18.03;50.48;101598.34;5058433;27;97217;-30
2022/09/02 07:22:25;;;;;;;1.75;1.00;;;;;;;18.07;50.69;101599.88;5039172;27;97032;-30
2022/09/02 07:24:51;;;;;;;1.48;0.93;;;;;;;18.19;50.54;101590.63;5039972;27;97772;-33
2022/09/02 07:27:16;;;;;;;4.22;0.88;;;;;;;18.25;50.70;101592.84;5057608;27;99856;-30
2022/09/02 07:29:43;;;;;;;1.42;0.98;;;;;;;18.39;50.33;101593.59;5056481;27;97921;-30
2022/09/02 07:32:09;;;;;;;1.00;0.82;;;;;;;18.47;50.23;101591.06;5039545;27;96742;-31
2022/09/02 07:34:34;;;;;;;2.55;1.02;;;;;;;18.56;50.09;101587.56;5057690;27;96734;-31
2022/09/02 07:37:00;;;;;;;3.22;1.27;;;;;;;18.57;49.97;101586.59;5056808;27;102304;-30
2022/09/02 07:39:26;;;;;;;1.85;1.10;;;;;;;18.68;50.35;101585.66;5039434;27;101163;-30
2022/09/02 07:41:51;;;;;;;3.03;1.08;;;;;;;18.81;50.30;101580.94;5058206;27;96493;-31
2022/09/02 07:44:19;;;;;;;1.95;1.05;;;;;;;18.95;50.29;101590.75;5058172;27;96767;-31
2022/09/02 07:46:44;;;;;;;2.58;1.15;;;;;;;18.92;49.96;101585.50;5039251;27;101051;-31
2022/09/02 07:49:11;;;;;;;1.25;0.90;;;;;;;19.07;49.98;101584.19;5058038;27;99563;-31
2022/09/02 07:51:40;;;;;;;1.80;1.10;;;;;;;19.25;49.53;101583.59;5039876;27;96682;-30
2022/09/02 07:54:07;;;;;;;1.75;1.02;;;;;;;19.30;49.80;101590.44;5039702;27;96853;-30
2022/09/02 07:56:32;;;;;;;2.35;1.27;;;;;;;19.35;49.81;101590.03;5038637;27;100827;-30
2022/09/02 07:58:58;;;;;;;1.85;1.13;;;;;;;19.43;49.93;101586.66;5057293;27;98891;-30
2022/09/02 08:01:24;;;;;;;2.03;1.10;;;;;;;19.40;49.87;101587.78;5039811;27;96519;-30
2022/09/02 08:03:50;;;;;;;3.50;1.30;;;;;;;19.40;49.61;101592.38;5058119;27;96826;-30
2022/09/02 08:06:16;;;;;;;2.00;1.20;;;;;;;19.57;49.64;101594.56;5038902;27;100979;-30
2022/09/02 08:08:41;;;;;;;1.83;1.13;;;;;;;19.64;49.45;101586.59;5057341;27;99212;-30
2022/09/02 08:11:07;;;;;;;2.30;1.30;;;;;;;19.67;49.69;101583.63;5057812;27;96561;-30
2022/09/02 08:13:35;;;;;;;1.95;1.08;;;;;;;19.69;49.65;101585.25;5057708;27;96934;-30
2022/09/02 08:16:01;;;;;;;2.25;1.58;;;;;;;19.71;49.39;101577.75;5056960;27;98074;-31
2022/09/02 08:18:27;;;;;;;3.97;1.33;;;;;;;19.89;49.44;101580.72;5057033;27;99260;-31
2022/09/02 08:20:52;;;;;;;2.22;1.50;;;;;;;20.18;48.84;101577.22;5038958;27;96515;-31
2022/09/02 08:23:18;;;;;;;2.97;1.65;;;;;;;20.41;48.50;101566.00;5057742;27;96750;-30
2022/09/02 08:25:44;;;;;;;2.38;1.25;;;;;;;20.53;48.05;101574.00;5056943;27;99231;-31
2022/09/02 08:28:10;;;;;;;2.33;1.48;;;;;;;20.53;48.16;101574.00;5038920;27;101276;-30
2022/09/02 08:30:35;;;;;;;4.57;1.60;;;;;;;20.62;47.69;101580.56;5057583;27;96457;-30
2022/09/02 08:33:00;;;;;;;2.53;1.70;;;;;;;20.72;47.63;101567.69;5057521;27;96753;-29
2022/09/02 08:35:26;;;;;;;1.90;1.30;;;;;;;20.81;47.49;101567.81;5056595;27;118448;-30
2022/09/02 08:37:51;;;;;;;1.45;1.17;;;;;;;20.78;47.50;101566.22;5057559;27;97420;-31
2022/09/02 08:40:22;;;;;;;2.33;1.30;;;;;;;20.83;47.17;101574.06;5057425;27;96606;-30
2022/09/02 08:42:53;;;;;;;3.40;1.55;;;;;;;20.97;47.21;101568.13;5039170;27;96750;-30
2022/09/02 08:45:27;;;;;;;2.95;1.48;;;;;;;21.13;46.91;101568.41;5038207;27;100980;-30
2022/09/02 08:48:36;;;;;;;1.70;1.25;;;;;;;21.26;46.84;101567.25;5038429;27;101066;-31
2022/09/02 08:51:08;;;;;;;3.55;1.40;;;;;;;21.39;46.06;101563.19;5057021;27;96593;-30
2022/09/02 08:53:50;;;;;;;3.10;1.50;;;;;;;21.32;46.01;101558.41;5039014;27;96631;-30
2022/09/02 08:56:17;;;;;;;2.90;1.48;;;;;;;21.24;46.79;101561.91;5060304;27;98038;-30
2022/09/02 08:58:46;;;;;;;4.18;1.65;;;;;;;21.21;46.69;101562.16;5060384;27;97924;-34
2022/09/02 09:01:29;;;;;;;1.77;1.27;;;;;;;21.26;46.76;101558.97;5042477;27;96752;-32
2022/09/02 09:04:22;;;;;;;3.00;1.50;;;;;;;21.37;45.92;101562.44;5042775;27;96751;-30
2022/09/02 09:06:48;;;;;;;3.42;1.40;;;;;;;21.49;45.99;101549.41;5048656;27;98593;-31
2022/09/02 09:09:32;;;;;;;4.50;1.70;;;;;;;21.56;45.55;101553.31;5060202;27;97672;-31
2022/09/02 09:12:12;;;;;;;5.97;1.45;;;;;;;21.51;46.04;101555.63;5041339;27;96924;-30
2022/09/02 09:14:56;;;;;;;2.13;1.48;;;;;;;21.71;46.30;101555.56;5041788;27;96830;-32
2022/09/02 09:17:31;;;;;;;2.25;1.58;;;;;;;21.84;45.82;101559.75;5041805;27;100821;-30
2022/09/02 09:20:02;;;;;;;2.58;1.50;;;;;;;21.95;45.92;101546.78;5041749;27;100689;-32
2022/09/02 09:22:36;;;;;;;4.25;1.38;;;;;;;22.23;45.33;101544.94;5042135;27;96600;-30
2022/09/02 09:25:06;;;;;;;3.15;1.50;;;;;;;22.34;45.49;101544.72;5060651;27;96663;-30
2022/09/02 09:27:31;;;;;;;4.03;1.60;;;;;;;22.43;45.19;101552.09;5041580;27;101294;-30
2022/09/02 09:29:57;;;;;;;2.60;1.50;;;;;;;22.64;45.41;101546.28;5060270;27;99210;-30
2022/09/02 09:32:58;;;;;;;4.05;1.70;;;;;;;22.84;44.59;101546.16;5060209;27;97138;-31
2022/09/02 09:35:25;;;;;;;2.17;1.25;;;;;;;22.90;44.59;101546.34;5057654;27;96779;-31
2022/09/02 09:37:52;;;;;;;3.95;1.55;;;;;;;23.05;44.59;101543.09;5040762;27;100954;-30
2022/09/02 09:40:17;;;;;;;3.38;1.63;;;;;;;23.18;44.69;101543.53;5041380;27;100828;-34
2022/09/02 09:42:44;;;;;;;3.50;1.70;;;;;;;23.20;43.78;101535.09;5060406;27;96408;-30
2022/09/02 09:45:21;;;;;;;3.45;1.65;;;;;;;23.24;43.86;101530.97;5041827;27;96969;-30
2022/09/02 09:48:18;;;;;;;2.35;1.65;;;;;;;23.34;43.18;101528.97;5059402;27;99289;-30
2022/09/02 09:50:47;;;;;;;2.67;1.48;;;;;;;23.43;43.95;101528.00;5059413;27;99578;-30
2022/09/02 09:53:17;;;;;;;6.85;1.67;;;;;;;23.57;43.86;101523.75;5041571;27;96582;-30
2022/09/02 09:56:14;;;;;;;2.92;1.80;;;;;;;23.68;42.92;101525.41;5060387;27;96643;-31
2022/09/02 09:58:40;;;;;;;4.88;1.70;;;;;;;23.81;43.64;101534.16;5041167;27;101429;-30
2022/09/02 10:01:17;;;;;;;3.20;1.47;;;;;;;23.91;43.42;101520.22;5059402;27;97907;-30
2022/09/02 10:03:53;;;;;;;3.42;1.63;;;;;;;24.06;42.40;101531.50;5041024;27;96681;-30
2022/09/02 10:06:37;;;;;;;4.47;1.88;;;;;;;24.27;42.19;101531.09;5040897;27;96869;-30
2022/09/02 10:09:14;;;;;;;3.00;1.45;;;;;;;24.43;42.06;101525.59;5040755;27;101181;-30
2022/09/02 10:11:54;;;;;;;4.10;1.85;;;;;;;24.73;41.44;101534.34;5039989;27;100941;-30
2022/09/02 10:14:20;;;;;;;4.47;1.80;;;;;;;24.87;40.84;101524.50;5041169;27;96570;-31
2022/09/02 10:17:07;;;;;;;2.65;1.58;;;;;;;25.02;40.36;101534.72;5059408;27;96820;-31
2022/09/02 10:19:59;;;;;;;2.22;1.70;;;;;;;25.15;40.79;101534.22;5059156;27;97519;-32
2022/09/02 10:22:59;;;;;;;4.53;1.80;;;;;;;25.50;40.14;101522.94;5041089;27;100855;-31
2022/09/02 10:25:54;;;;;;;4.15;1.70;;;;;;;25.76;40.21;101519.91;5027216;27;96714;-31
2022/09/02 10:28:35;;;;;;;2.72;1.38;;;;;;;25.79;39.41;101514.91;5059332;27;96662;-32
2022/09/02 10:31:24;;;;;;;3.15;1.58;;;;;;;25.81;39.68;101506.38;5058504;27;99092;-33
2022/09/02 10:34:14;;;;;;;4.45;1.42;;;;;;;26.06;38.51;101499.72;5040526;27;100800;-31
2022/09/02 10:37:17;;;;;;;4.40;1.67;;;;;;;26.24;37.48;101505.03;5040972;27;96597;-32
2022/09/02 10:40:07;;;;;;;4.40;1.77;;;;;;;26.39;38.21;101502.34;5040913;27;96762;-32
2022/09/02 10:43:06;;;;;;;3.83;1.58;;;;;;;26.47;37.92;101512.53;5040333;27;102350;-31
2022/09/02 10:45:45;;;;;;;3.63;1.63;;;;;;;26.42;37.25;101510.28;5040462;27;101004;-32
2022/09/02 10:48:26;;;;;;;2.65;1.70;;;;;;;26.65;38.80;101510.38;5041167;27;96771;-32
2022/09/02 10:51:03;;;;;;;3.05;2.00;;;;;;;26.82;37.24;101504.69;5058986;27;96853;-32
2022/09/02 10:53:33;;;;;;;2.78;1.80;;;;;;;26.92;37.21;101505.31;5040010;27;101024;-32
2022/09/02 10:56:02;;;;;;;6.28;1.83;;;;;;;26.98;38.14;101504.56;5040004;27;101129;-32
2022/09/02 10:58:56;;;;;;;4.20;1.90;;;;;;;27.16;37.67;101500.59;5058291;27;96574;-31
2022/09/02 11:01:27;;;;;;;3.80;1.88;;;;;;;27.19;37.36;101494.63;5058796;27;96624;-32
2022/09/02 11:04:08;;;;;;;2.50;1.60;;;;;;;27.05;37.15;101494.44;5040192;27;101024;-31
2022/09/02 11:06:43;;;;;;;2.70;1.67;;;;;;;27.01;37.16;101486.63;5039920;27;101211;-31
2022/09/02 11:09:35;;;;;;;4.00;1.63;;;;;;;27.25;37.48;101483.66;5040484;27;96616;-31
2022/09/02 11:12:20;;;;;;;3.38;1.80;;;;;;;27.38;37.17;101483.00;5032398;27;96865;-31
2022/09/02 11:15:03;;;;;;;3.25;1.45;;;;;;;27.38;36.93;101469.09;5037479;27;100953;-31
2022/09/02 11:17:37;;;;;;;4.88;1.92;;;;;;;27.43;36.93;101474.94;5057400;27;97869;-31
2022/09/02 11:20:08;;;;;;;2.92;1.90;;;;;;;27.54;35.93;101479.19;5040276;27;96674;-33
2022/09/02 11:22:43;;;;;;;3.67;1.52;;;;;;;27.61;37.26;101474.56;5040261;27;96748;-32
2022/09/02 11:25:26;;;;;;;2.97;1.67;;;;;;;27.71;36.30;101471.50;5039284;27;100862;-31
2022/09/02 11:28:02;;;;;;;4.35;1.80;;;;;;;27.91;36.59;101467.13;5039795;27;101093;-31
2022/09/02 11:30:40;;;;;;;3.75;1.70;;;;;;;27.78;35.39;101461.31;5040229;27;96565;-31
2022/09/02 11:33:20;;;;;;;3.78;2.15;;;;;;;27.83;35.88;101455.22;5040141;27;96819;-31
2022/09/02 11:35:45;;;;;;;5.63;2.03;;;;;;;27.72;36.89;101450.94;5039594;27;100819;-31